Time;durP1;ratioP1;P1;durP2;ratioP2;P2;SDS_P1;SDS_P2;PMS_P1;PMS_P2;Temp;Humidity;BMP_temperature;BMP_pressure;BME280_temperature;BME280_humidity;BME280_pressure;Samples;Min_cycle;Max_cycle;Signal;HPM_P1;HPM_P2
2021/12/08 04:35:20;;;;;;;;;;;;;;;-0.10;67.09;91622.34;6310631;22;19914;-75
2021/12/08 04:37:49;;;;;;;;;;;;;;;-0.09;67.09;91628.25;6371169;22;20387;-75
2021/12/08 04:43:50;;;;;;;;;;;;;;;-0.05;67.37;91611.31;6371281;22;19917;-75
2021/12/08 04:53:32;;;;;;;;;;;;;;;-0.09;69.84;91610.25;6371316;22;19913;-75
2021/12/08 05:02:37;;;;;;;;;;;;;;;-0.16;71.81;91589.06;6342824;22;19912;-76
2021/12/08 05:10:04;;;;;;;;;;;;;;;-0.17;71.91;91605.53;6343023;22;19906;-76
2021/12/08 05:12:32;;;;;;;;;;;;;;;-0.21;72.10;91613.72;6370698;22;20378;-76
2021/12/08 05:15:05;;;;;;;;;;;;;;;-0.16;70.78;91617.38;6316840;22;19954;-76
2021/12/08 05:17:35;;;;;;;;;;;;;;;-0.07;70.41;91605.63;6370966;22;20245;-76
2021/12/08 05:20:07;;;;;;;;;;;;;;;-0.12;71.11;91619.22;6342876;22;19906;-75
2021/12/08 05:22:35;;;;;;;;;;;;;;;-0.14;71.99;91595.53;6370487;22;20248;-76
2021/12/08 05:28:10;;;;;;;;;;;;;;;-0.26;75.34;91576.91;6370772;22;20320;-75
2021/12/08 05:30:39;;;;;;;;;;;;;;;-0.31;76.39;91579.44;6343994;22;20357;-75
2021/12/08 05:33:24;;;;;;;;;;;;;;;-0.35;76.76;91588.63;6372977;22;19926;-75
2021/12/08 05:35:50;;;;;;;;;;;;;;;-0.39;76.98;91593.47;6318710;22;19948;-75
2021/12/08 05:38:16;;;;;;;;;;;;;;;-0.38;76.63;91595.03;6372791;22;19906;-75
2021/12/08 05:44:20;;;;;;;;;;;;;;;-0.46;78.84;91593.66;6372651;22;19956;-76
2021/12/08 05:50:25;;;;;;;;;;;;;;;-0.65;82.54;91585.50;6372678;22;19913;-76
2021/12/08 05:56:05;;;;;;;;;;;;;;;-0.73;82.79;91578.19;6344605;22;19910;-76
2021/12/08 05:58:32;;;;;;;;;;;;;;;-0.78;83.55;91575.56;6318429;22;19913;-76
2021/12/08 06:04:34;;;;;;;;;;;;;;;-0.89;84.32;91566.94;6372631;22;19917;-75
2021/12/08 06:07:22;;;;;;;;;;;;;;;-0.81;84.92;91560.63;6345028;22;20249;-76
2021/12/08 06:09:49;;;;;;;;;;;;;;;-0.81;84.75;91559.84;6345120;22;19906;-75
2021/12/08 06:12:14;;;;;;;;;;;;;;;-0.79;85.39;91552.66;6372693;22;19902;-75
2021/12/08 06:17:54;;;;;;;;;;;;;;;-0.91;85.99;91534.81;6372456;22;19984;-75
2021/12/08 06:20:22;;;;;;;;;;;;;;;-0.97;86.43;91523.69;6372371;22;19941;-76
2021/12/08 06:22:51;;;;;;;;;;;;;;;-1.01;86.88;91516.69;6372240;22;19906;-75
2021/12/08 06:25:18;;;;;;;;;;;;;;;-1.07;87.11;91516.63;6372498;22;19958;-75
2021/12/08 06:27:44;;;;;;;;;;;;;;;-1.17;88.13;91510.59;6372373;22;20027;-76
2021/12/08 06:33:44;;;;;;;;;;;;;;;-1.40;90.03;91501.31;6372121;22;19913;-75
2021/12/08 06:36:49;;;;;;;;;;;;;;;-1.42;90.44;91496.41;6372584;22;19993;-76
2021/12/08 06:39:18;;;;;;;;;;;;;;;-1.49;90.71;91488.91;6372645;22;19906;-76
2021/12/08 06:41:47;;;;;;;;;;;;;;;-1.41;89.87;91484.38;6371959;22;19971;-76
2021/12/08 06:51:25;;;;;;;;;;;;;;;-1.65;92.54;91484.56;6368013;22;19917;-76
2021/12/08 06:53:54;;;;;;;;;;;;;;;-1.68;92.18;91472.22;6341014;22;19929;-76
2021/12/08 06:56:22;;;;;;;;;;;;;;;-1.65;92.63;91468.41;6370509;22;19924;-76
2021/12/08 06:58:49;;;;;;;;;;;;;;;-1.64;92.44;91465.59;6342225;22;20297;-76
2021/12/08 07:01:21;;;;;;;;;;;;;;;-1.64;92.65;91460.47;6371485;22;19924;-77
2021/12/08 07:04:07;;;;;;;;;;;;;;;-1.61;91.73;91462.56;6372070;22;20352;-77
2021/12/08 07:09:07;;;;;;;;;;;;;;;-1.65;93.81;91453.78;6370168;22;19917;-78
2021/12/08 07:11:33;;;;;;;;;;;;;;;-1.83;94.60;91452.25;6372460;22;20252;-77
2021/12/08 07:13:58;;;;;;;;;;;;;;;-1.89;95.31;91469.38;6316600;22;19914;-77
2021/12/08 07:16:26;;;;;;;;;;;;;;;-1.78;95.07;91469.50;6370543;22;19906;-77
2021/12/08 07:18:57;;;;;;;;;;;;;;;-1.83;95.55;91462.50;6372047;22;19906;-77
2021/12/08 07:21:25;;;;;;;;;;;;;;;-1.80;95.67;91458.69;6342855;22;19944;-77
2021/12/08 07:23:54;;;;;;;;;;;;;;;-1.79;94.68;91455.91;6369597;22;19971;-77
2021/12/08 07:26:23;;;;;;;;;;;;;;;-1.70;94.40;91453.72;6372435;22;20210;-78
2021/12/08 07:28:50;;;;;;;;;;;;;;;-1.66;94.74;91452.22;6373778;22;19933;-77
2021/12/08 07:31:28;;;;;;;;;;;;;;;-1.58;94.65;91459.50;6373662;22;19914;-77
2021/12/08 07:33:55;;;;;;;;;;;;;;;-1.54;93.01;91470.09;6369097;22;19993;-77
2021/12/08 07:36:21;;;;;;;;;;;;;;;-1.53;93.10;91469.84;6368288;22;19935;-79
2021/12/08 07:38:54;;;;;;;;;;;;;;;-1.52;93.34;91450.88;6339735;22;19910;-76
2021/12/08 07:41:22;;;;;;;;;;;;;;;-1.54;93.37;91450.31;6368267;22;19928;-76
2021/12/08 07:43:51;;;;;;;;;;;;;;;-1.54;93.56;91447.75;6367537;22;19980;-76
2021/12/08 07:46:29;;;;;;;;;;;;;;;-1.54;93.90;91449.56;6341144;22;19960;-77
2021/12/08 07:48:57;;;;;;;;;;;;;;;-1.53;93.73;91446.75;6340059;22;19910;-76
2021/12/08 07:51:35;;;;;;;;;;;;;;;-1.54;92.57;91442.63;6370413;22;19933;-78
2021/12/08 07:54:02;;;;;;;;;;;;;;;-1.69;93.06;91427.81;6370893;22;19937;-77
2021/12/08 07:56:28;;;;;;;;;;;;;;;-1.73;93.10;91441.38;6343564;22;19906;-77
2021/12/08 07:58:56;;;;;;;;;;;;;;;-1.83;92.86;91442.00;6370662;22;20735;-77
2021/12/08 08:01:26;;;;;;;;;;;;;;;-1.81;93.82;91446.88;6372060;22;19912;-77
2021/12/08 08:03:53;;;;;;;;;;;;;;;-1.80;93.14;91446.66;6343457;22;19914;-77
2021/12/08 08:06:25;;;;;;;;;;;;;;;-1.79;92.80;91432.81;6344604;22;19917;-77
2021/12/08 08:08:51;;;;;;;;;;;;;;;-1.94;93.40;91441.06;6341980;22;19913;-77
2021/12/08 08:11:22;;;;;;;;;;;;;;;-1.80;92.63;91451.00;6340906;22;19910;-76
2021/12/08 08:13:49;;;;;;;;;;;;;;;-1.77;92.43;91474.41;6338711;22;19913;-77
2021/12/08 08:16:16;;;;;;;;;;;;;;;-1.73;92.02;91459.31;6338813;22;19955;-77
2021/12/08 08:18:45;;;;;;;;;;;;;;;-1.68;91.71;91444.00;6370903;22;20382;-77
2021/12/08 08:21:14;;;;;;;;;;;;;;;-1.63;91.70;91440.72;6371539;22;19909;-78
2021/12/08 08:23:39;;;;;;;;;;;;;;;-1.57;90.80;91450.81;6370773;22;19910;-77
2021/12/08 08:26:07;;;;;;;;;;;;;;;-1.55;91.16;91435.19;6371351;22;19902;-77
2021/12/08 08:28:33;;;;;;;;;;;;;;;-1.41;91.31;91433.03;6343418;22;19906;-76
2021/12/08 08:31:08;;;;;;;;;;;;;;;-1.52;91.08;91438.03;6370518;22;19997;-77
2021/12/08 08:33:35;;;;;;;;;;;;;;;-1.50;91.59;91438.56;6342634;22;19906;-76
2021/12/08 08:36:04;;;;;;;;;;;;;;;-1.47;91.89;91427.81;6371546;22;19997;-78
2021/12/08 08:38:32;;;;;;;;;;;;;;;-1.37;90.98;91439.25;6342965;22;19981;-77
2021/12/08 08:41:06;;;;;;;;;;;;;;;-1.36;90.54;91427.94;6340827;22;20347;-77
2021/12/08 08:43:32;;;;;;;;;;;;;;;-1.35;91.01;91399.47;6341268;22;20549;-77
2021/12/08 08:46:09;;;;;;;;;;;;;;;-1.31;90.61;91404.88;6370040;22;19918;-77
2021/12/08 08:48:40;;;;;;;;;;;;;;;-1.31;90.01;91410.03;6369081;22;19906;-76
2021/12/08 08:51:14;;;;;;;;;;;;;;;-1.32;89.77;91400.78;6370551;22;19917;-77
2021/12/08 08:53:41;;;;;;;;;;;;;;;-1.50;90.33;91402.63;6341410;22;19912;-77
2021/12/08 08:56:08;;;;;;;;;;;;;;;-1.35;89.87;91407.19;6340751;22;19914;-77
2021/12/08 08:58:35;;;;;;;;;;;;;;;-1.62;91.87;91414.81;6370548;22;19906;-77
2021/12/08 09:01:13;;;;;;;;;;;;;;;-1.47;91.35;91425.25;6316124;22;19949;-77
2021/12/08 09:03:39;;;;;;;;;;;;;;;-1.50;90.39;91412.91;6370902;22;19917;-77
2021/12/08 09:06:07;;;;;;;;;;;;;;;-1.54;91.22;91413.63;6371051;22;20226;-76
2021/12/08 09:08:34;;;;;;;;;;;;;;;-1.58;91.21;91430.50;6370032;22;19910;-77
2021/12/08 09:11:12;;;;;;;;;;;;;;;-1.71;91.46;91429.84;6321393;22;20325;-79
2021/12/08 09:13:45;;;;;;;;;;;;;;;-1.63;91.39;91413.25;6350908;22;19906;-77
2021/12/08 09:16:19;;;;;;;;;;;;;;;-1.65;92.51;91410.16;6343220;22;19906;-77
2021/12/08 09:18:53;;;;;;;;;;;;;;;-1.69;92.34;91411.63;6343942;22;19913;-78
2021/12/08 09:21:25;;;;;;;;;;;;;;;-1.62;91.84;91406.31;6318578;22;19906;-78
2021/12/08 09:24:02;;;;;;;;;;;;;;;-1.57;91.02;91414.88;6373085;22;20375;-80
2021/12/08 09:26:30;;;;;;;;;;;;;;;-1.42;91.32;91424.53;6372402;22;19906;-76
2021/12/08 09:29:11;;;;;;;;;;;;;;;-1.41;90.39;91425.34;6371292;22;19932;-77
2021/12/08 09:31:44;;;;;;;;;;;;;;;-1.42;91.15;91411.69;6346319;22;19958;-78
2021/12/08 09:34:19;;;;;;;;;;;;;;;-1.36;90.30;91399.72;6345215;22;19910;-78
2021/12/08 09:36:46;;;;;;;;;;;;;;;-1.33;89.34;91384.59;6344856;22;19910;-77
2021/12/08 09:39:15;;;;;;;;;;;;;;;-1.35;89.78;91378.13;6374243;22;19957;-77
2021/12/08 09:41:44;;;;;;;;;;;;;;;-1.33;88.88;91383.81;6372362;22;19902;-78
2021/12/08 09:44:15;;;;;;;;;;;;;;;-1.38;89.65;91397.38;6372673;22;19921;-77
2021/12/08 09:46:42;;;;;;;;;;;;;;;-1.33;88.75;91404.34;6341684;22;20261;-76
2021/12/08 09:49:08;;;;;;;;;;;;;;;-1.22;89.13;91390.59;6368365;22;19902;-77
2021/12/08 09:51:35;;;;;;;;;;;;;;;-1.35;89.07;91396.13;6315275;22;19945;-77
2021/12/08 09:54:00;;;;;;;;;;;;;;;-1.23;88.85;91414.75;6313582;22;20357;-76
2021/12/08 09:56:26;;;;;;;;;;;;;;;-1.18;88.87;91398.63;6370760;22;20378;-79
2021/12/08 09:58:53;;;;;;;;;;;;;;;-1.08;88.41;91381.53;6314644;22;19902;-78
2021/12/08 10:01:21;;;;;;;;;;;;;;;-0.95;88.07;91384.72;6369572;22;19917;-80
2021/12/08 10:03:47;;;;;;;;;;;;;;;-0.96;87.66;91362.63;6370030;22;19910;-78
2021/12/08 10:06:14;;;;;;;;;;;;;;;-1.01;87.45;91342.81;6369035;22;19906;-81
2021/12/08 10:08:43;;;;;;;;;;;;;;;-0.94;86.56;91337.47;6314299;22;19906;-79
2021/12/08 10:11:09;;;;;;;;;;;;;;;-0.94;87.28;91319.47;6370027;22;19956;-81
2021/12/08 10:13:35;;;;;;;;;;;;;;;-1.01;88.49;91318.88;6373851;22;19914;-81
2021/12/08 10:16:00;;;;;;;;;;;;;;;-1.29;90.52;91313.00;6368576;22;19995;-78
2021/12/08 10:18:26;;;;;;;;;;;;;;;-1.40;91.20;91286.44;6371450;22;19910;-79
2021/12/08 10:20:53;;;;;;;;;;;;;;;-1.53;92.66;91279.13;6369479;22;19914;-79
2021/12/08 10:23:23;;;;;;;;;;;;;;;-1.54;93.17;91275.78;6343000;22;20059;-79
2021/12/08 10:26:12;;;;;;;;;;;;;;;-1.49;93.01;91278.44;6370986;22;20395;-79
2021/12/08 10:28:40;;;;;;;;;;;;;;;-1.45;91.37;91267.66;6332026;22;19906;-79
2021/12/08 10:31:08;;;;;;;;;;;;;;;-1.60;92.56;91258.81;6370788;22;19906;-77
2021/12/08 10:36:36;;;;;;;;;;;;;;;-1.94;94.91;91299.22;6370273;22;20256;-78
2021/12/08 10:39:07;;;;;;;;;;;;;;;-1.90;95.10;91316.47;6342292;22;20260;-78
2021/12/08 10:41:43;;;;;;;;;;;;;;;-1.86;95.67;91295.47;6370032;22;19906;-78
2021/12/08 10:44:09;;;;;;;;;;;;;;;-1.85;93.99;91279.06;6370046;22;19910;-78
2021/12/08 10:46:37;;;;;;;;;;;;;;;-1.78;93.98;91283.00;6341776;22;19909;-77
2021/12/08 10:54:37;;;;;;;;;;;;;;;-1.51;92.36;91218.06;6370385;22;19963;-78
2021/12/08 10:57:17;;;;;;;;;;;;;;;-1.42;92.31;91219.16;6370100;22;19997;-78
2021/12/08 11:00:06;;;;;;;;;;;;;;;-1.37;91.27;91206.38;6315589;22;20295;-77
2021/12/08 11:02:35;;;;;;;;;;;;;;;-1.33;90.46;91197.19;6331018;22;19918;-77
2021/12/08 11:05:00;;;;;;;;;;;;;;;-1.21;89.81;91186.75;6315956;22;19902;-78
2021/12/08 11:07:26;;;;;;;;;;;;;;;-1.19;89.23;91174.44;6342791;22;19914;-78
2021/12/08 11:09:51;;;;;;;;;;;;;;;-1.22;90.93;91195.44;6341100;22;19906;-78
2021/12/08 11:12:17;;;;;;;;;;;;;;;-1.61;93.67;91195.66;6342438;22;19914;-78
2021/12/08 11:14:46;;;;;;;;;;;;;;;-1.54;93.02;91193.66;6370059;22;19913;-77
2021/12/08 11:17:29;;;;;;;;;;;;;;;-1.47;91.94;91189.09;6341687;22;19914;-77
2021/12/08 11:20:15;;;;;;;;;;;;;;;-1.42;91.10;91195.28;6343004;22;19906;-78
2021/12/08 11:22:43;;;;;;;;;;;;;;;-1.40;91.40;91178.63;6342197;22;20311;-78
2021/12/08 11:25:21;;;;;;;;;;;;;;;-1.38;91.13;91186.84;6369799;22;19902;-78
2021/12/08 11:27:47;;;;;;;;;;;;;;;-1.28;90.02;91170.78;6341726;22;20056;-76
2021/12/08 11:30:13;;;;;;;;;;;;;;;-1.32;89.69;91164.56;6369494;22;19937;-78
2021/12/08 11:32:39;;;;;;;;;;;;;;;-1.49;90.93;91155.22;6370580;22;19917;-78
2021/12/08 11:35:04;;;;;;;;;;;;;;;-1.38;90.44;91150.16;6342794;22;19914;-78
2021/12/08 11:37:34;;;;;;;;;;;;;;;-1.37;89.84;91144.00;6342792;22;19910;-78
2021/12/08 11:40:01;;;;;;;;;;;;;;;-1.32;90.00;91123.50;6370703;22;19906;-78
2021/12/08 11:42:29;;;;;;;;;;;;;;;-1.24;89.00;91094.78;6370961;22;19918;-78
2021/12/08 11:44:56;;;;;;;;;;;;;;;-1.19;88.62;91088.88;6341476;22;19913;-77
2021/12/08 11:47:25;;;;;;;;;;;;;;;-1.19;88.90;91094.03;6342575;22;19902;-78
2021/12/08 11:49:56;;;;;;;;;;;;;;;-1.12;89.08;91087.66;6342816;22;19907;-78
2021/12/08 11:52:29;;;;;;;;;;;;;;;-1.09;88.87;91094.84;6341970;22;19906;-78
2021/12/08 11:54:59;;;;;;;;;;;;;;;-1.09;88.85;91097.44;6342313;22;19913;-78
2021/12/08 11:57:40;;;;;;;;;;;;;;;-1.06;88.42;91112.38;6342898;22;19905;-78
2021/12/08 12:00:09;;;;;;;;;;;;;;;-1.09;87.76;91107.69;6370164;22;19912;-78
2021/12/08 12:02:37;;;;;;;;;;;;;;;-1.09;87.80;91107.69;6370291;22;19906;-77
2021/12/08 12:05:05;;;;;;;;;;;;;;;-1.07;88.42;91097.97;6341820;22;19905;-78
2021/12/08 12:07:31;;;;;;;;;;;;;;;-1.11;88.24;91099.47;6342514;22;19902;-78
2021/12/08 12:09:57;;;;;;;;;;;;;;;-1.09;88.02;91087.16;6340429;22;19910;-78
2021/12/08 12:12:22;;;;;;;;;;;;;;;-1.16;88.29;91076.34;6342306;22;20438;-77
2021/12/08 12:14:48;;;;;;;;;;;;;;;-1.11;88.29;91060.94;6369840;22;19910;-78
2021/12/08 12:17:14;;;;;;;;;;;;;;;-1.06;88.71;91071.25;6342187;22;20249;-78
2021/12/08 12:19:48;;;;;;;;;;;;;;;-1.03;88.84;91072.56;6344254;22;19974;-78
2021/12/08 12:22:19;;;;;;;;;;;;;;;-0.98;88.90;91069.25;6370265;22;20102;-78
2021/12/08 12:24:55;;;;;;;;;;;;;;;-0.91;89.41;91074.91;6343515;22;19910;-78
2021/12/08 12:27:37;;;;;;;;;;;;;;;-0.84;88.87;91083.16;6370948;22;19906;-78
2021/12/08 12:30:06;;;;;;;;;;;;;;;-0.86;88.78;91090.34;6316487;22;19987;-78
2021/12/08 12:32:36;;;;;;;;;;;;;;;-0.90;88.07;91081.59;6342831;22;20092;-78
2021/12/08 12:35:09;;;;;;;;;;;;;;;-0.90;87.89;91073.88;6370512;22;19910;-78
2021/12/08 12:37:36;;;;;;;;;;;;;;;-0.89;87.53;91078.00;6342787;22;19931;-77
2021/12/08 12:40:03;;;;;;;;;;;;;;;-0.87;87.64;91073.41;6341398;22;20377;-78
2021/12/08 12:42:42;;;;;;;;;;;;;;;-0.86;88.22;91065.44;6342046;22;19906;-78
2021/12/08 12:45:09;;;;;;;;;;;;;;;-0.83;88.18;91048.75;6369854;22;19906;-77
2021/12/08 12:47:35;;;;;;;;;;;;;;;-0.78;87.94;91050.56;6370185;22;19906;-78
2021/12/08 12:50:04;;;;;;;;;;;;;;;-0.98;89.79;91051.25;6341989;22;20325;-77
2021/12/08 12:52:37;;;;;;;;;;;;;;;-1.18;90.54;91039.09;6370493;22;19902;-77
2021/12/08 12:55:14;;;;;;;;;;;;;;;-1.26;92.08;91037.78;6342522;22;19917;-78
2021/12/08 12:57:58;;;;;;;;;;;;;;;-1.20;92.07;91041.13;6370164;22;19906;-77
2021/12/08 13:00:42;;;;;;;;;;;;;;;-1.15;91.70;91044.50;6369167;22;19955;-78
2021/12/08 13:03:09;;;;;;;;;;;;;;;-1.15;91.84;91052.22;6314775;22;19966;-78
2021/12/08 13:05:47;;;;;;;;;;;;;;;-1.15;91.84;91059.91;6369712;22;20226;-78
2021/12/08 13:08:27;;;;;;;;;;;;;;;-1.14;91.13;91048.63;6341565;22;19917;-78
2021/12/08 13:10:55;;;;;;;;;;;;;;;-1.09;91.31;91046.06;6369935;22;19930;-77
2021/12/08 13:13:20;;;;;;;;;;;;;;;-1.08;90.30;91037.34;6317358;22;20237;-78
2021/12/08 13:15:47;;;;;;;;;;;;;;;-1.06;90.30;91035.31;6370954;22;19914;-78
2021/12/08 13:18:14;;;;;;;;;;;;;;;-1.03;90.42;91023.00;6369971;22;19988;-78
2021/12/08 13:20:45;;;;;;;;;;;;;;;-0.99;90.67;91000.88;6341798;22;19906;-78
2021/12/08 13:23:12;;;;;;;;;;;;;;;-0.93;90.07;91005.03;6341129;22;19938;-77
2021/12/08 13:26:00;;;;;;;;;;;;;;;-0.87;89.65;90996.31;6341740;22;19909;-78
2021/12/08 13:28:35;;;;;;;;;;;;;;;-0.88;88.87;90982.72;6369115;22;19906;-78
2021/12/08 13:31:08;;;;;;;;;;;;;;;-0.88;89.79;90975.00;6341624;22;19977;-78
2021/12/08 13:33:40;;;;;;;;;;;;;;;-1.13;91.76;90982.59;6341157;22;19912;-78
2021/12/08 13:36:18;;;;;;;;;;;;;;;-1.20;92.09;90987.22;6368828;22;19910;-77
2021/12/08 13:38:43;;;;;;;;;;;;;;;-1.24;92.63;90992.06;6341689;22;19918;-77
2021/12/08 13:41:13;;;;;;;;;;;;;;;-1.22;93.05;90989.25;6340052;22;20337;-77
2021/12/08 13:43:40;;;;;;;;;;;;;;;-1.19;92.77;90989.53;6314481;22;19917;-78
2021/12/08 13:46:07;;;;;;;;;;;;;;;-1.12;92.10;90974.66;6368975;22;20315;-80
2021/12/08 13:48:32;;;;;;;;;;;;;;;-1.08;91.86;90965.44;6368523;22;19902;-77
2021/12/08 13:51:18;;;;;;;;;;;;;;;-1.00;91.06;90955.69;6340347;22;19910;-78
2021/12/08 13:53:44;;;;;;;;;;;;;;;-0.94;91.22;90959.81;6341624;22;19916;-79
2021/12/08 13:56:09;;;;;;;;;;;;;;;-0.93;90.92;90953.66;6343418;22;20321;-78
2021/12/08 13:58:37;;;;;;;;;;;;;;;-0.97;90.59;90966.22;6374975;22;19929;-78
2021/12/08 14:01:03;;;;;;;;;;;;;;;-1.00;90.82;90959.03;6348451;22;19906;-78
2021/12/08 14:03:36;;;;;;;;;;;;;;;-1.01;90.23;90961.84;6371496;22;19914;-76
2021/12/08 14:06:02;;;;;;;;;;;;;;;-0.99;90.34;90962.34;6372621;22;19988;-78
2021/12/08 14:08:33;;;;;;;;;;;;;;;-0.98;90.64;90963.91;6376802;22;19946;-78
2021/12/08 14:11:02;;;;;;;;;;;;;;;-0.94;90.76;90964.97;6347541;22;19910;-78
2021/12/08 14:13:33;;;;;;;;;;;;;;;-0.95;90.69;90959.03;6378230;22;19917;-78
2021/12/08 14:16:03;;;;;;;;;;;;;;;-0.94;91.09;90954.69;6351409;22;19906;-78
2021/12/08 14:18:34;;;;;;;;;;;;;;;-0.93;90.89;90953.66;6376303;22;19906;-79
2021/12/08 14:21:04;;;;;;;;;;;;;;;-0.91;90.79;90951.59;6371641;22;19907;-76
2021/12/08 14:23:31;;;;;;;;;;;;;;;-0.90;90.37;90945.44;6350834;22;19954;-80
2021/12/08 14:26:07;;;;;;;;;;;;;;;-0.87;90.47;90935.44;6376964;22;19910;-78
2021/12/08 14:28:45;;;;;;;;;;;;;;;-0.80;90.22;90937.75;6378959;22;20325;-77
2021/12/08 14:31:22;;;;;;;;;;;;;;;-0.77;89.86;90934.66;6376158;22;19906;-77
2021/12/08 14:33:51;;;;;;;;;;;;;;;-0.76;90.39;90943.16;6321296;22;19944;-78
2021/12/08 14:36:17;;;;;;;;;;;;;;;-0.73;90.20;90940.84;6375355;22;19963;-78
2021/12/08 14:38:52;;;;;;;;;;;;;;;-0.73;90.21;90934.94;6349069;22;19910;-77
2021/12/08 14:41:19;;;;;;;;;;;;;;;-0.71;89.89;90931.09;6373812;22;19922;-76
2021/12/08 14:43:47;;;;;;;;;;;;;;;-0.73;90.53;90928.00;6376741;22;19910;-78
2021/12/08 14:46:16;;;;;;;;;;;;;;;-0.76;89.87;90936.22;6320391;22;19910;-78
2021/12/08 14:48:53;;;;;;;;;;;;;;;-0.78;90.72;90930.56;6325048;22;19932;-79
2021/12/08 14:51:21;;;;;;;;;;;;;;;-0.84;91.09;90923.88;6380867;22;19910;-78
2021/12/08 14:53:47;;;;;;;;;;;;;;;-0.88;90.93;90933.09;6350892;22;20067;-78
2021/12/08 14:56:12;;;;;;;;;;;;;;;-0.78;91.46;90933.13;6350066;22;20317;-79
2021/12/08 14:58:39;;;;;;;;;;;;;;;-0.83;90.84;90945.97;6379299;22;19959;-78
2021/12/08 15:01:10;;;;;;;;;;;;;;;-0.91;90.93;90943.91;6352581;22;19906;-79
2021/12/08 15:03:43;;;;;;;;;;;;;;;-0.90;91.16;90941.09;6372922;22;19910;-76
2021/12/08 15:06:29;;;;;;;;;;;;;;;-0.89;90.98;90932.34;6345880;22;20339;-80
2021/12/08 15:08:55;;;;;;;;;;;;;;;-0.92;91.53;90917.44;6351174;22;19906;-79
2021/12/08 15:11:25;;;;;;;;;;;;;;;-0.93;91.89;90915.88;6351180;22;19935;-80
2021/12/08 15:13:52;;;;;;;;;;;;;;;-0.96;92.06;90921.53;6378676;22;19912;-77
2021/12/08 15:16:20;;;;;;;;;;;;;;;-0.97;91.66;90922.53;6345969;22;20012;-79
2021/12/08 15:18:50;;;;;;;;;;;;;;;-1.02;91.75;90926.91;6375011;22;19934;-77
2021/12/08 15:21:35;;;;;;;;;;;;;;;-1.03;91.91;90925.38;6344920;22;20058;-78
2021/12/08 15:24:03;;;;;;;;;;;;;;;-1.05;91.76;90926.41;6372260;22;19910;-75
2021/12/08 15:26:29;;;;;;;;;;;;;;;-1.06;91.82;90922.28;6373215;22;19902;-78
2021/12/08 15:28:54;;;;;;;;;;;;;;;-1.05;92.32;90916.13;6349499;22;19966;-78
2021/12/08 15:31:27;;;;;;;;;;;;;;;-1.05;91.82;90912.78;6344721;22;19910;-76
2021/12/08 15:33:53;;;;;;;;;;;;;;;-1.05;91.25;90912.78;6373491;22;19906;-78
2021/12/08 15:36:23;;;;;;;;;;;;;;;-1.07;91.31;90919.97;6376380;22;19982;-79
2021/12/08 15:38:49;;;;;;;;;;;;;;;-1.05;91.37;90916.13;6378422;22;19980;-78
2021/12/08 15:41:22;;;;;;;;;;;;;;;-1.09;91.70;90909.94;6379761;22;19906;-80
2021/12/08 15:43:48;;;;;;;;;;;;;;;-1.09;91.86;90917.66;6379607;22;19914;-79
2021/12/08 15:46:15;;;;;;;;;;;;;;;-1.10;92.16;90918.69;6379715;22;19914;-78
2021/12/08 15:48:48;;;;;;;;;;;;;;;-1.12;92.18;90923.31;6352620;22;19928;-78
2021/12/08 15:51:14;;;;;;;;;;;;;;;-1.13;92.19;90921.75;6377695;22;19948;-78
2021/12/08 15:53:41;;;;;;;;;;;;;;;-1.12;92.56;90914.84;6351488;22;19906;-78
2021/12/08 15:56:17;;;;;;;;;;;;;;;-1.14;92.68;90917.66;6379340;22;19937;-78
2021/12/08 15:58:47;;;;;;;;;;;;;;;-1.16;92.33;90917.13;6379905;22;19906;-79
2021/12/08 16:01:14;;;;;;;;;;;;;;;-1.15;92.81;90912.75;6379196;22;19910;-79
2021/12/08 16:03:43;;;;;;;;;;;;;;;-1.20;92.00;90910.94;6351727;22;19913;-78
2021/12/08 16:06:12;;;;;;;;;;;;;;;-1.16;91.99;90914.56;6351387;22;19977;-78
2021/12/08 16:08:39;;;;;;;;;;;;;;;-1.17;92.56;90915.59;6351591;22;19910;-77
2021/12/08 16:11:05;;;;;;;;;;;;;;;-1.17;92.88;90907.88;6352110;22;20009;-78
2021/12/08 16:13:30;;;;;;;;;;;;;;;-1.18;92.65;90903.75;6351708;22;19910;-78
2021/12/08 16:15:59;;;;;;;;;;;;;;;-1.19;92.85;90894.53;6351659;22;19914;-78
2021/12/08 16:18:30;;;;;;;;;;;;;;;-1.21;92.88;90883.72;6351620;22;19914;-78
2021/12/08 16:20:57;;;;;;;;;;;;;;;-1.25;92.63;90892.97;6351690;22;19910;-78
2021/12/08 16:23:22;;;;;;;;;;;;;;;-1.27;92.95;90882.16;6351709;22;19917;-78
2021/12/08 16:25:48;;;;;;;;;;;;;;;-1.25;92.84;90872.41;6352517;22;19910;-78
2021/12/08 16:28:14;;;;;;;;;;;;;;;-1.29;92.83;90882.41;6325039;22;20591;-78
2021/12/08 16:30:41;;;;;;;;;;;;;;;-1.28;93.54;90898.63;6374055;22;19913;-80
2021/12/08 16:33:06;;;;;;;;;;;;;;;-1.29;92.97;90889.34;6370006;22;19937;-81
2021/12/08 16:35:32;;;;;;;;;;;;;;;-1.30;93.18;90885.25;6369120;22;19921;-79
2021/12/08 16:37:59;;;;;;;;;;;;;;;-1.32;93.65;90882.94;6368687;22;19917;-79
2021/12/08 16:43:13;;;;;;;;;;;;;;;-1.20;92.84;90882.69;6371516;22;19919;-80
2021/12/08 16:45:44;;;;;;;;;;;;;;;-1.25;94.08;90892.97;6342997;22;19906;-81
2021/12/08 16:48:11;;;;;;;;;;;;;;;-1.25;95.69;90887.81;6369184;22;19906;-79
2021/12/08 16:50:38;;;;;;;;;;;;;;;-1.20;95.18;90889.63;6344191;22;19910;-81
2021/12/08 16:53:05;;;;;;;;;;;;;;;-1.21;95.03;90893.25;6315468;22;19910;-81
2021/12/08 16:55:30;;;;;;;;;;;;;;;-1.18;94.17;90888.34;6370858;22;19906;-81
2021/12/08 16:57:57;;;;;;;;;;;;;;;-1.21;94.31;90878.59;6344156;22;19914;-80
2021/12/08 17:00:25;;;;;;;;;;;;;;;-1.18;94.19;90887.59;6369629;22;19913;-79
2021/12/08 17:02:51;;;;;;;;;;;;;;;-1.18;93.57;90887.59;6369811;22;19910;-81
2021/12/08 17:05:17;;;;;;;;;;;;;;;-1.15;93.42;90890.44;6342684;22;19951;-83
2021/12/08 17:07:43;;;;;;;;;;;;;;;-1.12;93.09;90884.78;6316620;22;19910;-80
2021/12/08 17:10:09;;;;;;;;;;;;;;;-1.14;93.96;90891.97;6369595;22;20315;-81
2021/12/08 17:12:35;;;;;;;;;;;;;;;-1.16;93.51;90886.31;6370670;22;19910;-81
2021/12/08 17:15:01;;;;;;;;;;;;;;;-1.14;93.34;90894.53;6371516;22;19913;-81
2021/12/08 17:17:26;;;;;;;;;;;;;;;-1.16;94.03;90891.44;6344087;22;19926;-83
2021/12/08 17:19:53;;;;;;;;;;;;;;;-1.14;93.55;90893.75;6345085;22;20449;-79
2021/12/08 17:22:20;;;;;;;;;;;;;;;-1.15;93.69;90893.00;6343658;22;19914;-77
2021/12/08 17:24:46;;;;;;;;;;;;;;;-1.12;92.98;90899.41;6365436;22;19921;-80
2021/12/08 17:27:11;;;;;;;;;;;;;;;-1.14;93.57;90894.53;6315370;22;19910;-80
2021/12/08 17:29:37;;;;;;;;;;;;;;;-1.15;93.63;90898.13;6372796;22;19914;-81
2021/12/08 17:32:03;;;;;;;;;;;;;;;-1.17;93.36;90892.47;6374259;22;19917;-81
2021/12/08 17:34:28;;;;;;;;;;;;;;;-1.16;93.87;90900.94;6345003;22;20013;-82
2021/12/08 17:36:54;;;;;;;;;;;;;;;-1.17;93.42;90884.78;6374548;22;19913;-80
2021/12/08 17:39:21;;;;;;;;;;;;;;;-1.17;93.90;90882.22;6375610;22;20008;-80
2021/12/08 17:41:48;;;;;;;;;;;;;;;-1.17;94.10;90881.41;6346426;22;19933;-81
2021/12/08 17:44:17;;;;;;;;;;;;;;;-1.16;94.12;90881.16;6372739;22;19910;-81
2021/12/08 17:46:42;;;;;;;;;;;;;;;-1.15;94.26;90881.94;6347264;22;20368;-79
2021/12/08 17:49:08;;;;;;;;;;;;;;;-1.14;94.44;90873.22;6348898;22;20339;-83
2021/12/08 17:51:33;;;;;;;;;;;;;;;-1.12;94.53;90866.03;6374899;22;19929;-80
2021/12/08 17:53:59;;;;;;;;;;;;;;;-1.12;94.30;90859.09;6321585;22;19933;-81
2021/12/08 17:56:25;;;;;;;;;;;;;;;-1.12;94.19;90853.97;6375826;22;19946;-80
2021/12/08 17:58:51;;;;;;;;;;;;;;;-1.11;93.81;90855.50;6374280;22;19936;-78
2021/12/08 18:01:16;;;;;;;;;;;;;;;-1.11;94.00;90858.06;6375261;22;20029;-81
2021/12/08 18:03:42;;;;;;;;;;;;;;;-1.10;94.05;90861.41;6376046;22;19914;-78
2021/12/08 18:06:08;;;;;;;;;;;;;;;-1.14;93.21;90863.72;6377203;22;19955;-81
2021/12/08 18:08:34;;;;;;;;;;;;;;;-1.09;94.65;90861.16;6372748;22;19910;-80
2021/12/08 18:11:02;;;;;;;;;;;;;;;-1.12;95.16;90861.66;6372983;22;19990;-80
2021/12/08 18:13:27;;;;;;;;;;;;;;;-1.21;96.26;90865.75;6373177;22;19906;-78
2021/12/08 18:15:55;;;;;;;;;;;;;;;-1.26;96.00;90858.06;6349133;22;19948;-81
2021/12/08 18:18:21;;;;;;;;;;;;;;;-1.27;96.28;90864.97;6375835;22;19912;-80
2021/12/08 18:20:47;;;;;;;;;;;;;;;-1.27;96.57;90864.19;6372714;22;20230;-80
2021/12/08 18:23:12;;;;;;;;;;;;;;;-1.24;95.91;90863.69;6372829;22;19918;-78
2021/12/08 18:25:39;;;;;;;;;;;;;;;-1.21;95.64;90857.28;6346244;22;19914;-79
2021/12/08 18:28:08;;;;;;;;;;;;;;;-1.21;95.62;90863.19;6374975;22;19917;-79
2021/12/08 18:30:33;;;;;;;;;;;;;;;-1.17;95.24;90853.16;6370701;22;20362;-76
2021/12/08 18:32:59;;;;;;;;;;;;;;;-1.13;95.10;90854.97;6344660;22;19910;-79
2021/12/08 18:35:41;;;;;;;;;;;;;;;-1.08;95.10;90846.50;6343458;22;19910;-80
2021/12/08 18:38:07;;;;;;;;;;;;;;;-1.10;94.79;90838.31;6374599;22;19981;-79
2021/12/08 18:40:34;;;;;;;;;;;;;;;-1.10;95.42;90844.22;6345720;22;20252;-79